createdAt,value
2022-09-30T00:01:07.165Z,4.30
2022-09-30T00:03:40.506Z,4.30
2022-09-30T00:06:08.945Z,4.40
2022-09-30T00:08:38.059Z,4.40
2022-09-30T00:11:13.532Z,4.50
2022-09-30T00:13:40.987Z,4.50
2022-09-30T00:16:09.949Z,4.40
2022-09-30T00:18:37.837Z,4.40
2022-09-30T00:21:05.906Z,4.40
2022-09-30T00:23:32.783Z,4.30
2022-09-30T00:26:01.951Z,4.30
2022-09-30T00:28:30.438Z,4.30
2022-09-30T00:31:02.479Z,4.30
2022-09-30T00:33:29.498Z,4.30
2022-09-30T00:35:56.682Z,4.30
2022-09-30T00:38:23.608Z,4.20
2022-09-30T00:40:51.668Z,4.20
2022-09-30T00:43:42.156Z,4.30
2022-09-30T00:46:19.876Z,4.40
2022-09-30T00:48:53.870Z,4.40
2022-09-30T00:51:42.335Z,4.40
2022-09-30T00:54:17.890Z,4.30
2022-09-30T00:56:49.803Z,4.30
2022-09-30T00:59:22.942Z,4.30
2022-09-30T01:01:50.400Z,4.30
2022-09-30T01:04:23.476Z,4.20
2022-09-30T01:06:51.158Z,4.20
2022-09-30T01:09:19.329Z,4.20
2022-09-30T01:11:47.156Z,4.10
2022-09-30T01:14:24.598Z,4.00
2022-09-30T01:17:35.232Z,4.00
2022-09-30T01:20:10.694Z,4.00
2022-09-30T01:23:16.062Z,4.00
2022-09-30T01:26:33.395Z,4.00
2022-09-30T01:29:28.846Z,4.00
2022-09-30T01:32:10.262Z,3.90
2022-09-30T01:35:23.737Z,3.90
2022-09-30T01:38:03.861Z,3.90
2022-09-30T01:40:55.544Z,3.90
2022-09-30T01:43:44.710Z,3.90
2022-09-30T01:46:19.595Z,3.80
2022-09-30T01:49:07.366Z,3.80
2022-09-30T01:51:53.427Z,3.80
2022-09-30T01:54:41.567Z,3.90
2022-09-30T01:57:24.387Z,3.90
2022-09-30T01:59:56.349Z,3.80
2022-09-30T02:02:33.256Z,3.80
2022-09-30T02:05:05.562Z,3.70
2022-09-30T02:07:45.521Z,3.70
2022-09-30T02:10:22.106Z,3.60
2022-09-30T02:12:56.105Z,3.50
2022-09-30T02:15:26.608Z,3.50
2022-09-30T02:17:58.822Z,3.50
2022-09-30T02:20:29.432Z,3.50
2022-09-30T02:23:14.627Z,3.50
2022-09-30T02:25:48.856Z,3.40
2022-09-30T02:28:22.165Z,3.30
2022-09-30T02:30:50.167Z,3.30
2022-09-30T02:33:23.276Z,3.30
2022-09-30T02:36:06.045Z,3.20
2022-09-30T02:38:44.878Z,3.20
2022-09-30T02:41:16.738Z,3.20
2022-09-30T02:43:44.207Z,3.20
2022-09-30T02:46:39.487Z,3.20
2022-09-30T02:49:30.019Z,3.10
2022-09-30T02:52:05.625Z,3.10
2022-09-30T02:54:59.579Z,3.20
2022-09-30T02:57:53.011Z,3.20
2022-09-30T03:00:20.342Z,3.10
2022-09-30T03:02:47.231Z,3.10
2022-09-30T03:05:14.326Z,3.10
2022-09-30T03:07:41.915Z,3.10
2022-09-30T03:10:16.962Z,3.10
2022-09-30T03:13:02.862Z,3.10
2022-09-30T03:15:39.883Z,3.00
2022-09-30T03:18:24.313Z,3.00
2022-09-30T03:21:25.141Z,3.00
2022-09-30T03:24:35.796Z,3.00
2022-09-30T03:27:11.690Z,3.00
2022-09-30T03:29:57.253Z,3.00
2022-09-30T03:33:01.345Z,3.00
2022-09-30T03:35:32.856Z,2.90
2022-09-30T03:38:16.624Z,2.90
2022-09-30T03:40:56.575Z,2.90
2022-09-30T03:43:36.477Z,2.90
2022-09-30T03:46:16.767Z,2.80
2022-09-30T03:48:46.402Z,2.80
2022-09-30T03:51:13.787Z,2.80
2022-09-30T03:53:42.520Z,2.80
2022-09-30T03:56:09.361Z,2.90
2022-09-30T03:58:40.024Z,2.80
2022-09-30T04:01:06.914Z,2.80
2022-09-30T04:03:35.546Z,2.80
2022-09-30T04:06:03.708Z,2.90
2022-09-30T04:08:33.737Z,2.80
2022-09-30T04:11:00.843Z,2.90
2022-09-30T04:13:27.890Z,2.90
2022-09-30T04:15:55.212Z,2.90
2022-09-30T04:18:22.329Z,2.90
2022-09-30T04:20:49.383Z,3.00
2022-09-30T04:23:16.976Z,3.00
2022-09-30T04:25:43.804Z,3.00
2022-09-30T04:28:11.123Z,3.00
2022-09-30T04:30:38.343Z,3.00
2022-09-30T04:33:05.232Z,3.10
2022-09-30T04:35:32.713Z,3.10
2022-09-30T04:37:59.713Z,3.10
2022-09-30T04:40:26.560Z,3.10
2022-09-30T04:42:58.208Z,3.10
2022-09-30T04:45:25.503Z,3.20
2022-09-30T04:47:52.434Z,3.10
2022-09-30T04:50:19.757Z,3.10
2022-09-30T04:52:46.589Z,3.10
2022-09-30T04:55:13.617Z,3.20
2022-09-30T04:57:44.779Z,3.20
2022-09-30T05:00:12.099Z,3.20
2022-09-30T05:02:38.973Z,3.20
2022-09-30T05:05:06.831Z,3.30
2022-09-30T05:07:33.671Z,3.40
2022-09-30T05:10:01.114Z,3.40
2022-09-30T05:12:28.168Z,3.60
2022-09-30T05:14:55.266Z,3.60
2022-09-30T05:17:22.205Z,3.70
2022-09-30T05:19:49.257Z,3.90
2022-09-30T05:22:16.318Z,4.00
2022-09-30T05:24:43.233Z,4.10
2022-09-30T05:27:10.617Z,4.10
2022-09-30T05:29:37.511Z,4.10
2022-09-30T05:32:04.390Z,4.20
2022-09-30T05:34:31.441Z,4.30
2022-09-30T05:36:58.394Z,4.40
2022-09-30T05:39:25.262Z,4.50
2022-09-30T05:41:52.399Z,4.60
2022-09-30T05:44:19.362Z,4.70
2022-09-30T05:46:46.276Z,4.90
2022-09-30T05:49:13.888Z,5.10
2022-09-30T05:51:41.181Z,5.40
2022-09-30T05:54:09.155Z,5.50
2022-09-30T05:56:38.249Z,5.60
2022-09-30T05:59:06.256Z,5.70
2022-09-30T06:01:33.834Z,5.90
2022-09-30T06:04:01.396Z,6.00
2022-09-30T06:06:28.761Z,6.20
2022-09-30T06:08:55.644Z,6.70
2022-09-30T06:11:25.443Z,8.10
2022-09-30T06:13:52.594Z,9.30
2022-09-30T06:16:20.064Z,10.30
2022-09-30T06:18:47.430Z,10.90
2022-09-30T06:21:16.262Z,11.20
2022-09-30T06:23:43.516Z,11.20
2022-09-30T06:26:13.424Z,11.80
2022-09-30T06:28:41.101Z,12.00
2022-09-30T06:31:09.005Z,12.30
2022-09-30T06:33:36.181Z,12.30
2022-09-30T06:36:04.815Z,12.90
2022-09-30T06:38:40.208Z,14.00
2022-09-30T06:41:08.169Z,15.40
2022-09-30T06:43:41.347Z,16.80
2022-09-30T06:46:26.143Z,17.50
2022-09-30T06:49:10.705Z,18.20
2022-09-30T06:51:40.363Z,18.10
2022-09-30T06:54:09.063Z,18.40
2022-09-30T06:56:36.160Z,19.10
2022-09-30T06:59:04.615Z,19.90
2022-09-30T07:01:31.515Z,19.60
2022-09-30T07:03:58.435Z,18.70
2022-09-30T07:06:26.377Z,17.40
2022-09-30T07:08:54.278Z,16.40
2022-09-30T07:11:21.216Z,15.50
2022-09-30T07:13:49.362Z,14.90
2022-09-30T07:16:18.579Z,14.50
2022-09-30T07:18:46.118Z,14.50
2022-09-30T07:21:16.152Z,14.70
2022-09-30T07:23:48.057Z,14.80
2022-09-30T07:26:18.623Z,14.30
2022-09-30T07:28:45.710Z,13.90
2022-09-30T07:31:33.124Z,13.50
2022-09-30T07:34:02.651Z,13.00
2022-09-30T07:36:33.955Z,12.80
2022-09-30T07:39:05.480Z,12.60
2022-09-30T07:41:33.578Z,12.50
2022-09-30T07:44:00.531Z,12.70
2022-09-30T07:46:30.480Z,12.80
2022-09-30T07:49:04.213Z,13.20
2022-09-30T07:51:34.978Z,13.90
2022-09-30T07:54:06.015Z,15.00
2022-09-30T07:56:57.764Z,17.00
2022-09-30T07:59:21.846Z,18.30
2022-09-30T08:01:49.046Z,18.70
2022-09-30T08:04:17.939Z,19.90
2022-09-30T08:06:51.229Z,20.00
2022-09-30T08:09:19.404Z,18.80
2022-09-30T08:11:47.378Z,17.70
2022-09-30T08:14:16.808Z,16.90
2022-09-30T08:16:43.956Z,16.30
2022-09-30T08:19:19.576Z,15.80
2022-09-30T08:21:47.031Z,15.40
2022-09-30T08:24:14.864Z,15.00
2022-09-30T08:26:42.185Z,14.70
2022-09-30T08:29:20.415Z,14.40
2022-09-30T08:31:52.797Z,14.30
2022-09-30T08:34:20.026Z,14.00
2022-09-30T08:36:46.919Z,13.80
2022-09-30T08:39:14.126Z,13.80
2022-09-30T08:42:35.977Z,14.00
2022-09-30T08:45:18.824Z,14.50
2022-09-30T08:48:01.107Z,15.00
2022-09-30T08:50:41.592Z,16.40
2022-09-30T08:53:16.621Z,19.10
2022-09-30T08:55:46.213Z,21.40
2022-09-30T08:58:26.334Z,22.40
2022-09-30T09:00:58.404Z,23.10
2022-09-30T09:03:30.960Z,23.00
2022-09-30T09:06:27.249Z,22.10
2022-09-30T09:09:11.876Z,20.60
2022-09-30T09:12:05.272Z,18.90
2022-09-30T09:15:09.308Z,18.90
2022-09-30T09:18:24.067Z,19.20
2022-09-30T09:20:54.186Z,20.00
2022-09-30T09:23:22.064Z,21.50
2022-09-30T09:25:53.009Z,22.10
2022-09-30T09:28:42.624Z,22.30
2022-09-30T09:31:17.021Z,22.30
2022-09-30T09:33:44.505Z,22.30
2022-09-30T09:36:36.310Z,22.50
2022-09-30T09:39:27.196Z,23.10
2022-09-30T09:42:17.379Z,22.90
2022-09-30T09:44:53.506Z,22.30
2022-09-30T09:47:20.665Z,21.40
2022-09-30T09:49:56.863Z,20.40
2022-09-30T09:53:03.167Z,19.50
2022-09-30T09:55:30.096Z,18.80
2022-09-30T09:58:15.761Z,18.10
2022-09-30T10:00:48.807Z,17.70
2022-09-30T10:03:20.565Z,17.60
2022-09-30T10:06:04.337Z,17.40
2022-09-30T10:08:36.836Z,17.50
2022-09-30T10:11:06.848Z,17.30
2022-09-30T10:13:44.034Z,16.80
2022-09-30T10:16:32.863Z,16.40
2022-09-30T10:19:00.382Z,16.30
2022-09-30T10:21:29.322Z,16.30
2022-09-30T10:23:57.739Z,16.20
2022-09-30T10:29:05.037Z,16.00
2022-09-30T10:31:41.109Z,15.90
2022-09-30T10:34:14.082Z,15.80
2022-09-30T10:36:45.778Z,15.60
2022-09-30T10:39:35.625Z,15.70
2022-09-30T10:42:26.873Z,16.00
2022-09-30T10:45:02.155Z,16.20
2022-09-30T10:47:36.354Z,16.20
2022-09-30T10:50:08.880Z,16.20
2022-09-30T10:52:40.084Z,16.20
2022-09-30T10:55:20.929Z,16.10
2022-09-30T10:57:54.083Z,16.00
2022-09-30T11:00:22.032Z,16.00
2022-09-30T11:03:04.778Z,16.10
2022-09-30T11:05:38.833Z,16.10
2022-09-30T11:08:18.198Z,16.00
2022-09-30T11:11:01.475Z,16.10
2022-09-30T11:13:54.714Z,16.10
2022-09-30T11:16:33.112Z,16.00
2022-09-30T11:19:32.126Z,16.00
2022-09-30T11:22:41.981Z,15.90
2022-09-30T11:25:24.906Z,16.00
2022-09-30T11:27:58.638Z,16.00
2022-09-30T11:30:36.770Z,16.00
2022-09-30T11:33:53.693Z,16.00
2022-09-30T11:36:29.951Z,15.80
2022-09-30T11:39:11.727Z,15.60
2022-09-30T11:41:49.410Z,15.60
2022-09-30T11:44:26.302Z,15.70
2022-09-30T11:47:06.057Z,15.70
2022-09-30T11:50:16.462Z,15.80
2022-09-30T11:53:14.850Z,15.70
2022-09-30T11:56:11.789Z,15.70
2022-09-30T11:58:47.621Z,15.60
2022-09-30T12:01:34.108Z,15.50
2022-09-30T12:04:09.682Z,15.40
2022-09-30T12:06:43.492Z,15.40
2022-09-30T12:09:33.552Z,15.30
2022-09-30T12:12:07.915Z,15.20
2022-09-30T12:15:00.305Z,15.30
2022-09-30T12:17:44.121Z,15.40
2022-09-30T12:20:19.373Z,15.60
2022-09-30T12:22:47.929Z,15.60
2022-09-30T12:25:31.227Z,15.50
2022-09-30T12:28:25.812Z,15.40
2022-09-30T12:31:16.430Z,15.30
2022-09-30T12:34:08.435Z,15.10
2022-09-30T12:36:59.661Z,15.20
2022-09-30T12:39:43.655Z,15.30
2022-09-30T12:42:46.853Z,15.20
2022-09-30T12:45:38.632Z,15.00
2022-09-30T12:48:17.180Z,14.90
2022-09-30T12:50:47.241Z,14.90
2022-09-30T12:53:33.917Z,14.80
2022-09-30T12:56:14.177Z,14.90
2022-09-30T12:58:49.532Z,14.90
2022-09-30T13:01:22.715Z,14.90
2022-09-30T13:04:16.671Z,15.00
2022-09-30T13:06:46.521Z,14.90
2022-09-30T13:09:16.658Z,14.90
2022-09-30T13:11:46.007Z,14.80
2022-09-30T13:14:35.929Z,14.60
2022-09-30T13:17:08.947Z,14.50
2022-09-30T13:19:53.615Z,14.40
2022-09-30T13:22:20.914Z,14.40
2022-09-30T13:24:57.802Z,14.40
2022-09-30T13:27:44.776Z,14.40
2022-09-30T13:30:15.592Z,14.40
2022-09-30T13:32:47.853Z,14.30
2022-09-30T13:35:35.794Z,14.20
2022-09-30T13:38:14.812Z,14.20
2022-09-30T13:41:01.745Z,14.10
2022-09-30T13:43:43.394Z,14.20
2022-09-30T13:46:29.608Z,14.10
2022-09-30T13:49:18.539Z,14.10
2022-09-30T13:51:46.280Z,14.10
2022-09-30T13:54:34.072Z,14.00
2022-09-30T13:57:03.293Z,14.00
2022-09-30T13:59:46.971Z,14.00
2022-09-30T14:02:28.136Z,14.00
2022-09-30T14:05:00.573Z,14.10
2022-09-30T14:07:54.747Z,14.30
2022-09-30T14:10:22.030Z,14.40
2022-09-30T14:12:58.428Z,14.40
2022-09-30T14:16:16.700Z,14.60
2022-09-30T14:19:02.735Z,14.70
2022-09-30T14:21:35.246Z,14.80
2022-09-30T14:24:25.392Z,14.80
2022-09-30T14:27:04.451Z,14.70
2022-09-30T14:29:53.477Z,14.60
2022-09-30T14:32:27.980Z,14.50
2022-09-30T14:34:55.498Z,14.40
2022-09-30T14:37:36.851Z,14.40
2022-09-30T14:40:10.089Z,14.30
2022-09-30T14:42:40.031Z,14.30
2022-09-30T14:45:09.448Z,14.20
2022-09-30T14:47:45.414Z,14.20
2022-09-30T14:50:20.137Z,14.20
2022-09-30T14:52:51.850Z,14.20
2022-09-30T14:55:27.125Z,14.10
2022-09-30T14:57:56.514Z,14.10
2022-09-30T15:00:31.633Z,14.00
2022-09-30T15:02:59.769Z,14.00
2022-09-30T15:05:27.913Z,13.90
2022-09-30T15:07:55.300Z,13.80
2022-09-30T15:10:25.093Z,13.70
2022-09-30T15:12:53.468Z,13.70
2022-09-30T15:15:27.834Z,13.70
2022-09-30T15:17:57.888Z,13.80
2022-09-30T15:20:33.537Z,13.80
2022-09-30T15:23:03.987Z,13.80
2022-09-30T15:25:31.703Z,13.70
2022-09-30T15:27:58.840Z,13.60
2022-09-30T15:30:29.672Z,13.60
2022-09-30T15:33:01.440Z,13.60
2022-09-30T15:35:29.746Z,13.50
2022-09-30T15:38:15.407Z,13.50
2022-09-30T15:40:53.304Z,13.40
2022-09-30T15:43:36.661Z,13.30
2022-09-30T15:46:18.192Z,13.20
2022-09-30T15:48:45.693Z,13.20
2022-09-30T15:51:33.538Z,13.10
2022-09-30T15:54:15.742Z,13.00
2022-09-30T15:56:43.630Z,12.90
2022-09-30T15:59:12.279Z,12.80
2022-09-30T16:01:40.374Z,12.80
2022-09-30T16:04:15.248Z,12.70
2022-09-30T16:06:50.573Z,12.60
2022-09-30T16:09:17.587Z,12.60
2022-09-30T16:11:56.694Z,12.60
2022-09-30T16:14:31.104Z,12.50
2022-09-30T16:17:00.887Z,12.50
2022-09-30T16:19:30.216Z,12.40
2022-09-30T16:21:58.062Z,12.40
2022-09-30T16:24:25.426Z,12.30
2022-09-30T16:26:55.403Z,12.20
2022-09-30T16:29:23.067Z,12.10
2022-09-30T16:31:52.174Z,12.00
2022-09-30T16:34:27.304Z,11.90
2022-09-30T16:37:03.812Z,11.80
2022-09-30T16:39:30.906Z,11.70
2022-09-30T16:41:57.780Z,11.50
2022-09-30T16:44:24.677Z,11.40
2022-09-30T16:46:52.013Z,11.20
2022-09-30T16:49:19.832Z,11.10
2022-09-30T16:51:46.990Z,11.00
2022-09-30T16:54:14.313Z,10.90
2022-09-30T16:56:41.174Z,10.90
2022-09-30T16:59:13.467Z,10.80
2022-09-30T17:01:41.347Z,10.70
2022-09-30T17:04:09.855Z,10.60
2022-09-30T17:06:38.831Z,10.60
2022-09-30T17:09:06.096Z,10.50
2022-09-30T17:11:34.634Z,10.50
2022-09-30T17:14:03.225Z,10.50
2022-09-30T17:16:30.991Z,10.50
2022-09-30T17:18:58.190Z,10.50
2022-09-30T17:21:26.354Z,10.40
2022-09-30T17:23:55.502Z,10.30
2022-09-30T17:26:22.718Z,10.20
2022-09-30T17:28:49.577Z,10.20
2022-09-30T17:31:16.935Z,10.10
2022-09-30T17:33:43.879Z,10.10
2022-09-30T17:36:12.748Z,10.10
2022-09-30T17:38:40.814Z,10.10
2022-09-30T17:41:29.338Z,10.10
2022-09-30T17:44:02.344Z,10.10
2022-09-30T17:46:40.561Z,10.10
2022-09-30T17:49:09.066Z,10.10
2022-09-30T17:51:37.759Z,10.10
2022-09-30T17:54:06.421Z,10.00
2022-09-30T17:56:34.281Z,9.90
2022-09-30T17:59:02.648Z,9.90
2022-09-30T18:01:30.646Z,9.80
2022-09-30T18:03:59.830Z,9.70
2022-09-30T18:06:28.667Z,9.60
2022-09-30T18:08:55.992Z,9.50
2022-09-30T18:11:26.053Z,9.40
2022-09-30T18:13:58.014Z,9.30
2022-09-30T18:16:30.846Z,9.20
2022-09-30T18:19:02.549Z,9.20
2022-09-30T18:21:30.392Z,9.20
2022-09-30T18:23:57.808Z,9.20
2022-09-30T18:26:26.563Z,9.20
2022-09-30T18:28:53.695Z,9.20
2022-09-30T18:31:34.471Z,9.20
2022-09-30T18:34:03.634Z,9.20
2022-09-30T18:36:35.241Z,9.30
2022-09-30T18:39:02.803Z,9.40
2022-09-30T18:41:32.071Z,9.40
2022-09-30T18:44:02.724Z,9.40
2022-09-30T18:46:32.057Z,9.50
2022-09-30T18:48:59.397Z,9.60
2022-09-30T18:51:26.658Z,9.60
2022-09-30T18:53:57.744Z,9.60
2022-09-30T18:56:29.643Z,9.60
2022-09-30T18:58:56.787Z,9.60
2022-09-30T19:01:24.054Z,9.60
2022-09-30T19:03:52.599Z,9.60
2022-09-30T19:06:19.708Z,9.60
2022-09-30T19:08:46.670Z,9.60
2022-09-30T19:11:17.604Z,9.60
2022-09-30T19:13:47.835Z,9.60
2022-09-30T19:16:18.503Z,9.50
2022-09-30T19:18:46.786Z,9.50
2022-09-30T19:21:16.291Z,9.40
2022-09-30T19:23:43.231Z,9.40
2022-09-30T19:26:11.000Z,9.30
2022-09-30T19:28:38.246Z,9.30
2022-09-30T19:31:13.618Z,9.20
2022-09-30T19:33:54.834Z,9.10
2022-09-30T19:36:25.170Z,9.00
2022-09-30T19:39:05.216Z,8.90
2022-09-30T19:41:36.874Z,8.80
2022-09-30T19:44:04.442Z,8.70
2022-09-30T19:46:31.363Z,8.60
2022-09-30T19:48:58.398Z,8.60
2022-09-30T19:51:28.350Z,8.60
2022-09-30T19:54:04.824Z,8.60
2022-09-30T19:56:33.599Z,8.50
2022-09-30T19:59:00.754Z,8.50
2022-09-30T20:01:29.260Z,8.50
2022-09-30T20:04:00.182Z,8.30
2022-09-30T20:06:28.131Z,8.30
2022-09-30T20:08:59.127Z,8.20
2022-09-30T20:11:29.719Z,8.20
2022-09-30T20:14:15.790Z,8.10
2022-09-30T20:16:48.290Z,8.00
2022-09-30T20:19:16.804Z,8.00
2022-09-30T20:21:45.357Z,8.00
2022-09-30T20:24:15.440Z,8.00
2022-09-30T20:26:43.580Z,7.90
2022-09-30T20:29:12.184Z,7.90
2022-09-30T20:31:42.205Z,7.80
2022-09-30T20:34:13.225Z,7.80
2022-09-30T20:36:41.131Z,7.80
2022-09-30T20:39:09.534Z,7.80
2022-09-30T20:41:39.324Z,7.70
2022-09-30T20:44:10.216Z,7.70
2022-09-30T20:46:37.388Z,7.80
2022-09-30T20:49:04.611Z,7.80
2022-09-30T20:51:32.139Z,7.90
2022-09-30T20:53:59.785Z,7.90
2022-09-30T20:56:39.358Z,7.90
2022-09-30T20:59:17.309Z,7.90
2022-09-30T21:01:46.646Z,7.90
2022-09-30T21:04:13.838Z,7.80
2022-09-30T21:06:40.882Z,7.90
2022-09-30T21:09:11.144Z,7.90
2022-09-30T21:11:41.004Z,7.90
2022-09-30T21:14:08.878Z,8.00
2022-09-30T21:16:37.806Z,8.00
2022-09-30T21:19:04.847Z,8.00
2022-09-30T21:21:32.635Z,8.00
2022-09-30T21:24:00.152Z,8.00
2022-09-30T21:26:27.395Z,8.10
2022-09-30T21:28:54.564Z,8.10
2022-09-30T21:31:25.060Z,8.10
2022-09-30T21:33:59.383Z,8.10
2022-09-30T21:36:28.064Z,8.20
2022-09-30T21:39:01.118Z,8.20
2022-09-30T21:41:28.858Z,8.10
2022-09-30T21:43:56.073Z,8.10
2022-09-30T21:46:24.066Z,8.10
2022-09-30T21:48:53.715Z,8.10
2022-09-30T21:51:21.120Z,8.10
2022-09-30T21:53:48.801Z,8.10
2022-09-30T21:56:15.852Z,8.10
2022-09-30T21:58:42.832Z,8.10
2022-09-30T22:01:10.149Z,8.10
2022-09-30T22:03:37.712Z,8.00
2022-09-30T22:06:10.105Z,8.10
2022-09-30T22:08:41.770Z,8.10
2022-09-30T22:11:17.825Z,8.10
2022-09-30T22:13:46.098Z,8.10
2022-09-30T22:16:19.710Z,8.10
2022-09-30T22:18:46.765Z,8.20
2022-09-30T22:21:14.980Z,8.20
2022-09-30T22:23:43.836Z,8.20
2022-09-30T22:26:14.025Z,8.20
2022-09-30T22:28:40.917Z,8.20
2022-09-30T22:31:12.844Z,8.20
2022-09-30T22:33:58.796Z,8.20
2022-09-30T22:36:44.984Z,8.20
2022-09-30T22:39:11.928Z,8.20
2022-09-30T22:41:39.004Z,8.30
2022-09-30T22:44:06.440Z,8.30
2022-09-30T22:46:34.713Z,8.40
2022-09-30T22:49:02.839Z,8.40
2022-09-30T22:51:29.712Z,8.40
2022-09-30T22:53:56.681Z,8.40
2022-09-30T22:56:24.054Z,8.40
2022-09-30T22:58:50.940Z,8.40
2022-09-30T23:01:17.993Z,8.40
2022-09-30T23:03:45.408Z,8.50
2022-09-30T23:06:12.363Z,8.50
2022-09-30T23:08:42.803Z,8.50
2022-09-30T23:11:11.475Z,8.50
2022-09-30T23:13:39.774Z,8.50
2022-09-30T23:16:07.282Z,8.40
2022-09-30T23:18:34.678Z,8.50
2022-09-30T23:21:04.911Z,8.50
2022-09-30T23:23:33.051Z,8.50
2022-09-30T23:26:08.263Z,8.50
2022-09-30T23:28:35.679Z,8.40
2022-09-30T23:31:09.374Z,8.40
2022-09-30T23:33:37.222Z,8.40
2022-09-30T23:36:06.238Z,8.40
2022-09-30T23:38:33.893Z,8.40
2022-09-30T23:41:00.752Z,8.40
2022-09-30T23:43:34.103Z,8.30
2022-09-30T23:46:01.478Z,8.30
2022-09-30T23:48:29.076Z,8.30
2022-09-30T23:50:56.094Z,8.20
2022-09-30T23:53:23.067Z,8.30
2022-09-30T23:55:57.711Z,8.30
2022-09-30T23:58:26.046Z,8.30
